sensor_id;sensor_type;location;lat;lon;timestamp;pressure;altitude;pressure_sealevel;temperature;humidity
20624;BME280;10471;42.736;23.346;2022-09-27T00:00:30;94632.06;;;15.64;100.00
20624;BME280;10471;42.736;23.346;2022-09-27T00:02:55;94632.88;;;15.64;100.00
20624;BME280;10471;42.736;23.346;2022-09-27T00:05:21;94631.44;;;15.67;100.00
20624;BME280;10471;42.736;23.346;2022-09-27T00:07:46;94627.69;;;15.68;100.00
20624;BME280;10471;42.736;23.346;2022-09-27T00:10:12;94631.44;;;15.67;100.00
20624;BME280;10471;42.736;23.346;2022-09-27T00:12:38;94642.97;;;15.71;100.00
20624;BME280;10471;42.736;23.346;2022-09-27T00:15:05;94633.63;;;15.65;100.00
20624;BME280;10471;42.736;23.346;2022-09-27T00:17:31;94640.19;;;15.67;100.00
20624;BME280;10471;42.736;23.346;2022-09-27T00:20:00;94649.56;;;15.65;100.00
20624;BME280;10471;42.736;23.346;2022-09-27T00:22:26;94653.97;;;15.61;100.00
20624;BME280;10471;42.736;23.346;2022-09-27T00:24:52;94655.53;;;15.62;100.00
20624;BME280;10471;42.736;23.346;2022-09-27T00:27:18;94644.00;;;15.58;100.00
20624;BME280;10471;42.736;23.346;2022-09-27T00:29:44;94651.91;;;15.46;100.00
20624;BME280;10471;42.736;23.346;2022-09-27T00:32:11;94654.09;;;15.44;100.00
20624;BME280;10471;42.736;23.346;2022-09-27T00:34:37;94646.81;;;15.32;100.00
20624;BME280;10471;42.736;23.346;2022-09-27T00:37:03;94650.72;;;15.35;100.00
20624;BME280;10471;42.736;23.346;2022-09-27T00:39:28;94640.88;;;15.35;100.00
20624;BME280;10471;42.736;23.346;2022-09-27T00:41:54;94637.78;;;15.33;100.00
20624;BME280;10471;42.736;23.346;2022-09-27T00:49:50;94610.34;;;15.21;100.00
20624;BME280;10471;42.736;23.346;2022-09-27T00:52:45;94606.13;;;15.20;100.00
20624;BME280;10471;42.736;23.346;2022-09-27T00:55:19;94610.53;;;15.16;100.00
20624;BME280;10471;42.736;23.346;2022-09-27T00:57:45;94601.44;;;15.17;100.00
20624;BME280;10471;42.736;23.346;2022-09-27T01:00:12;94593.22;;;15.10;100.00
20624;BME280;10471;42.736;23.346;2022-09-27T01:02:42;94584.34;;;15.06;100.00
20624;BME280;10471;42.736;23.346;2022-09-27T01:05:10;94583.69;;;15.09;100.00
20624;BME280;10471;42.736;23.346;2022-09-27T01:07:36;94582.59;;;15.10;100.00
20624;BME280;10471;42.736;23.346;2022-09-27T01:10:03;94588.50;;;15.15;100.00
20624;BME280;10471;42.736;23.346;2022-09-27T01:12:48;94583.19;;;15.15;100.00
20624;BME280;10471;42.736;23.346;2022-09-27T01:18:38;94596.44;;;15.24;100.00
20624;BME280;10471;42.736;23.346;2022-09-27T01:32:05;94598.00;;;15.25;100.00
20624;BME280;10471;42.736;23.346;2022-09-27T01:34:41;94592.69;;;15.25;100.00
20624;BME280;10471;42.736;23.346;2022-09-27T01:40:00;94591.59;;;15.26;100.00
20624;BME280;10471;42.736;23.346;2022-09-27T01:42:42;94595.16;;;15.30;100.00
20624;BME280;10471;42.736;23.346;2022-09-27T01:47:55;94570.16;;;15.31;100.00
20624;BME280;10471;42.736;23.346;2022-09-27T01:50:28;94579.03;;;15.35;100.00
20624;BME280;10471;42.736;23.346;2022-09-27T01:53:02;94579.03;;;15.35;100.00
20624;BME280;10471;42.736;23.346;2022-09-27T01:55:31;94587.84;;;15.27;100.00
20624;BME280;10471;42.736;23.346;2022-09-27T01:58:13;94596.94;;;15.38;100.00
20624;BME280;10471;42.736;23.346;2022-09-27T02:00:43;94586.34;;;15.38;100.00
20624;BME280;10471;42.736;23.346;2022-09-27T02:03:13;94587.25;;;15.42;100.00
20624;BME280;10471;42.736;23.346;2022-09-27T02:05:45;94577.28;;;15.39;100.00
20624;BME280;10471;42.736;23.346;2022-09-27T02:08:59;94581.94;;;15.42;100.00
20624;BME280;10471;42.736;23.346;2022-09-27T02:11:09;94574.63;;;15.39;100.00
20624;BME280;10471;42.736;23.346;2022-09-27T02:21:20;94544.50;;;15.35;100.00
20624;BME280;10471;42.736;23.346;2022-09-27T02:23:52;94532.31;;;15.34;100.00
20624;BME280;10471;42.736;23.346;2022-09-27T02:26:26;94525.91;;;15.35;100.00
20624;BME280;10471;42.736;23.346;2022-09-27T02:29:36;94509.09;;;15.31;100.00
20624;BME280;10471;42.736;23.346;2022-09-27T02:32:03;94504.56;;;15.31;100.00
20624;BME280;10471;42.736;23.346;2022-09-27T02:34:31;94511.28;;;15.29;100.00
20624;BME280;10471;42.736;23.346;2022-09-27T02:36:59;94504.75;;;15.26;100.00
20624;BME280;10471;42.736;23.346;2022-09-27T02:39:25;94515.50;;;15.30;100.00
20624;BME280;10471;42.736;23.346;2022-09-27T02:41:50;94511.75;;;15.31;100.00
20624;BME280;10471;42.736;23.346;2022-09-27T02:44:16;94510.31;;;15.33;100.00
20624;BME280;10471;42.736;23.346;2022-09-27T02:50:08;94513.41;;;15.35;100.00
20624;BME280;10471;42.736;23.346;2022-09-27T02:52:49;94521.84;;;15.37;100.00
20624;BME280;10471;42.736;23.346;2022-09-27T03:01:11;94519.50;;;15.36;100.00
20624;BME280;10471;42.736;23.346;2022-09-27T03:03:45;94515.09;;;15.40;100.00
20624;BME280;10471;42.736;23.346;2022-09-27T03:06:15;94506.47;;;15.43;100.00
20624;BME280;10471;42.736;23.346;2022-09-27T03:08:42;94491.00;;;15.45;100.00
20624;BME280;10471;42.736;23.346;2022-09-27T03:11:08;94477.72;;;15.45;100.00
20624;BME280;10471;42.736;23.346;2022-09-27T03:13:33;94466.78;;;15.46;100.00
20624;BME280;10471;42.736;23.346;2022-09-27T03:16:01;94463.81;;;15.48;100.00
20624;BME280;10471;42.736;23.346;2022-09-27T03:18:26;94478.38;;;15.42;100.00
20624;BME280;10471;42.736;23.346;2022-09-27T03:20:52;94462.00;;;15.40;100.00
20624;BME280;10471;42.736;23.346;2022-09-27T03:23:18;94466.84;;;15.38;100.00
20624;BME280;10471;42.736;23.346;2022-09-27T03:25:44;94458.25;;;15.41;100.00
20624;BME280;10471;42.736;23.346;2022-09-27T03:28:10;94449.19;;;15.42;100.00
20624;BME280;10471;42.736;23.346;2022-09-27T03:30:35;94447.75;;;15.44;100.00
20624;BME280;10471;42.736;23.346;2022-09-27T03:33:02;94441.66;;;15.44;100.00
20624;BME280;10471;42.736;23.346;2022-09-27T03:35:27;94436.34;;;15.44;100.00
20624;BME280;10471;42.736;23.346;2022-09-27T03:37:52;94433.25;;;15.42;100.00
20624;BME280;10471;42.736;23.346;2022-09-27T03:40:18;94435.44;;;15.40;100.00
20624;BME280;10471;42.736;23.346;2022-09-27T03:42:43;94449.59;;;15.32;100.00
20624;BME280;10471;42.736;23.346;2022-09-27T03:45:09;94447.78;;;15.24;100.00
20624;BME280;10471;42.736;23.346;2022-09-27T03:47:39;94443.34;;;15.28;100.00
20624;BME280;10471;42.736;23.346;2022-09-27T03:50:05;94458.09;;;15.17;100.00
20624;BME280;10471;42.736;23.346;2022-09-27T03:52:32;94461.88;;;15.16;100.00
20624;BME280;10471;42.736;23.346;2022-09-27T03:54:57;94462.84;;;15.11;100.00
20624;BME280;10471;42.736;23.346;2022-09-27T03:57:22;94466.72;;;15.14;100.00
20624;BME280;10471;42.736;23.346;2022-09-27T03:59:48;94457.34;;;15.16;100.00
20624;BME280;10471;42.736;23.346;2022-09-27T04:02:13;94450.59;;;15.19;100.00
20624;BME280;10471;42.736;23.346;2022-09-27T04:04:39;94443.59;;;15.14;100.00
20624;BME280;10471;42.736;23.346;2022-09-27T04:07:04;94454.63;;;15.25;100.00
20624;BME280;10471;42.736;23.346;2022-09-27T04:09:29;94468.25;;;15.23;100.00
20624;BME280;10471;42.736;23.346;2022-09-27T04:11:55;94466.94;;;15.29;100.00
20624;BME280;10471;42.736;23.346;2022-09-27T04:14:20;94461.75;;;15.33;100.00
20624;BME280;10471;42.736;23.346;2022-09-27T04:16:45;94449.69;;;15.35;100.00
20624;BME280;10471;42.736;23.346;2022-09-27T04:19:11;94441.41;;;15.37;100.00
20624;BME280;10471;42.736;23.346;2022-09-27T04:21:36;94434.09;;;15.34;100.00
20624;BME280;10471;42.736;23.346;2022-09-27T04:24:02;94428.34;;;15.32;100.00
20624;BME280;10471;42.736;23.346;2022-09-27T04:26:29;94440.41;;;15.29;100.00
20624;BME280;10471;42.736;23.346;2022-09-27T04:28:54;94429.88;;;15.33;100.00
20624;BME280;10471;42.736;23.346;2022-09-27T04:31:21;94451.25;;;15.36;100.00
20624;BME280;10471;42.736;23.346;2022-09-27T04:33:46;94451.25;;;15.36;100.00
20624;BME280;10471;42.736;23.346;2022-09-27T04:36:18;94454.78;;;15.40;100.00
20624;BME280;10471;42.736;23.346;2022-09-27T04:38:58;94459.81;;;15.42;100.00
20624;BME280;10471;42.736;23.346;2022-09-27T04:41:26;94454.16;;;15.43;100.00
20624;BME280;10471;42.736;23.346;2022-09-27T04:43:53;94437.91;;;15.45;100.00
20624;BME280;10471;42.736;23.346;2022-09-27T04:46:19;94438.56;;;15.42;100.00
20624;BME280;10471;42.736;23.346;2022-09-27T04:48:48;94449.19;;;15.42;100.00
20624;BME280;10471;42.736;23.346;2022-09-27T04:51:14;94462.13;;;15.43;100.00
20624;BME280;10471;42.736;23.346;2022-09-27T04:53:44;94455.38;;;15.46;100.00
20624;BME280;10471;42.736;23.346;2022-09-27T04:56:11;94447.88;;;15.48;100.00
20624;BME280;10471;42.736;23.346;2022-09-27T04:58:36;94458.88;;;15.38;100.00
20624;BME280;10471;42.736;23.346;2022-09-27T05:01:03;94476.56;;;15.34;100.00
20624;BME280;10471;42.736;23.346;2022-09-27T05:03:29;94470.53;;;15.45;100.00
20624;BME280;10471;42.736;23.346;2022-09-27T05:05:55;94455.50;;;15.49;100.00
20624;BME280;10471;42.736;23.346;2022-09-27T05:08:21;94456.53;;;15.57;100.00
20624;BME280;10471;42.736;23.346;2022-09-27T05:10:46;94458.09;;;15.58;100.00
20624;BME280;10471;42.736;23.346;2022-09-27T05:13:13;94453.06;;;15.56;100.00
20624;BME280;10471;42.736;23.346;2022-09-27T05:15:39;94454.72;;;15.49;100.00
20624;BME280;10471;42.736;23.346;2022-09-27T05:18:05;94444.22;;;15.52;100.00
20624;BME280;10471;42.736;23.346;2022-09-27T05:20:33;94439.03;;;15.56;100.00
20624;BME280;10471;42.736;23.346;2022-09-27T05:22:59;94429.75;;;15.62;100.00
20624;BME280;10471;42.736;23.346;2022-09-27T05:25:24;94434.19;;;15.70;100.00
20624;BME280;10471;42.736;23.346;2022-09-27T05:27:50;94417.59;;;15.73;100.00
20624;BME280;10471;42.736;23.346;2022-09-27T05:30:16;94423.13;;;15.79;100.00
20624;BME280;10471;42.736;23.346;2022-09-27T05:32:42;94414.31;;;15.87;100.00
20624;BME280;10471;42.736;23.346;2022-09-27T05:35:08;94402.66;;;15.92;100.00
20624;BME280;10471;42.736;23.346;2022-09-27T05:37:34;94402.56;;;16.00;100.00
20624;BME280;10471;42.736;23.346;2022-09-27T05:39:59;94421.63;;;16.02;100.00
20624;BME280;10471;42.736;23.346;2022-09-27T05:42:25;94425.63;;;16.08;100.00
20624;BME280;10471;42.736;23.346;2022-09-27T05:44:50;94437.81;;;16.09;100.00
20624;BME280;10471;42.736;23.346;2022-09-27T05:47:16;94451.19;;;16.13;100.00
20624;BME280;10471;42.736;23.346;2022-09-27T05:49:42;94437.13;;;16.12;100.00
20624;BME280;10471;42.736;23.346;2022-09-27T05:52:07;94434.25;;;16.17;100.00
20624;BME280;10471;42.736;23.346;2022-09-27T05:54:32;94434.25;;;16.17;100.00
20624;BME280;10471;42.736;23.346;2022-09-27T05:56:58;94437.13;;;16.12;100.00
20624;BME280;10471;42.736;23.346;2022-09-27T05:59:25;94440.00;;;16.07;100.00
20624;BME280;10471;42.736;23.346;2022-09-27T06:01:51;94444.56;;;16.07;100.00
20624;BME280;10471;42.736;23.346;2022-09-27T06:04:17;94446.00;;;16.04;100.00
20624;BME280;10471;42.736;23.346;2022-09-27T06:06:43;94445.97;;;15.92;100.00
20624;BME280;10471;42.736;23.346;2022-09-27T06:09:15;94438.56;;;15.86;100.00
20624;BME280;10471;42.736;23.346;2022-09-27T06:11:41;94442.53;;;15.80;100.00
20624;BME280;10471;42.736;23.346;2022-09-27T06:14:10;94449.06;;;15.82;100.00
20624;BME280;10471;42.736;23.346;2022-09-27T06:16:36;94438.22;;;15.87;100.00
20624;BME280;10471;42.736;23.346;2022-09-27T06:19:02;94457.72;;;15.91;100.00
20624;BME280;10471;42.736;23.346;2022-09-27T06:21:28;94461.25;;;15.95;100.00
20624;BME280;10471;42.736;23.346;2022-09-27T06:23:55;94448.06;;;15.99;100.00
20624;BME280;10471;42.736;23.346;2022-09-27T06:26:21;94443.13;;;16.09;100.00
20624;BME280;10471;42.736;23.346;2022-09-27T06:28:46;94436.03;;;16.13;100.00
20624;BME280;10471;42.736;23.346;2022-09-27T06:31:12;94433.50;;;16.17;100.00
20624;BME280;10471;42.736;23.346;2022-09-27T06:33:38;94436.56;;;16.19;100.00
20624;BME280;10471;42.736;23.346;2022-09-27T06:36:05;94447.75;;;16.12;100.00
20624;BME280;10471;42.736;23.346;2022-09-27T06:38:31;94436.44;;;16.15;100.00
20624;BME280;10471;42.736;23.346;2022-09-27T06:41:03;94428.28;;;16.20;100.00
20624;BME280;10471;42.736;23.346;2022-09-27T06:43:28;94413.44;;;16.19;100.00
20624;BME280;10471;42.736;23.346;2022-09-27T06:45:58;94420.31;;;16.08;100.00
20624;BME280;10471;42.736;23.346;2022-09-27T06:48:28;94429.38;;;16.07;100.00
20624;BME280;10471;42.736;23.346;2022-09-27T06:50:55;94448.19;;;16.02;100.00
20624;BME280;10471;42.736;23.346;2022-09-27T06:53:22;94440.22;;;16.02;100.00
20624;BME280;10471;42.736;23.346;2022-09-27T06:55:48;94426.47;;;16.00;100.00
20624;BME280;10471;42.736;23.346;2022-09-27T06:58:15;94422.94;;;15.96;100.00
20624;BME280;10471;42.736;23.346;2022-09-27T07:00:59;94414.31;;;15.87;100.00
20624;BME280;10471;42.736;23.346;2022-09-27T07:03:25;94427.16;;;15.97;100.00
20624;BME280;10471;42.736;23.346;2022-09-27T07:06:00;94431.28;;;16.07;100.00
20624;BME280;10471;42.736;23.346;2022-09-27T07:08:27;94435.69;;;16.15;100.00
20624;BME280;10471;42.736;23.346;2022-09-27T07:10:55;94444.59;;;16.31;100.00
20624;BME280;10471;42.736;23.346;2022-09-27T07:13:21;94453.78;;;16.45;100.00
20624;BME280;10471;42.736;23.346;2022-09-27T07:15:47;94446.69;;;16.49;100.00
20624;BME280;10471;42.736;23.346;2022-09-27T07:18:12;94457.31;;;16.61;100.00
20624;BME280;10471;42.736;23.346;2022-09-27T07:20:38;94456.41;;;16.69;100.00
20624;BME280;10471;42.736;23.346;2022-09-27T07:23:05;94465.50;;;16.68;100.00
20624;BME280;10471;42.736;23.346;2022-09-27T07:25:32;94472.16;;;16.62;100.00
20624;BME280;10471;42.736;23.346;2022-09-27T07:28:02;94475.38;;;16.67;100.00
20624;BME280;10471;42.736;23.346;2022-09-27T07:30:28;94466.19;;;16.65;100.00
20624;BME280;10471;42.736;23.346;2022-09-27T07:33:01;94465.50;;;16.68;100.00
20624;BME280;10471;42.736;23.346;2022-09-27T07:35:28;94468.72;;;16.61;100.00
20624;BME280;10471;42.736;23.346;2022-09-27T07:37:55;94455.19;;;16.66;100.00
20624;BME280;10471;42.736;23.346;2022-09-27T07:40:22;94442.22;;;16.77;100.00
20624;BME280;10471;42.736;23.346;2022-09-27T07:42:53;94437.19;;;16.87;100.00
20624;BME280;10471;42.736;23.346;2022-09-27T07:45:19;94439.94;;;17.03;100.00
20624;BME280;10471;42.736;23.346;2022-09-27T07:47:44;94437.66;;;17.16;100.00
20624;BME280;10471;42.736;23.346;2022-09-27T07:50:10;94438.78;;;17.27;100.00
20624;BME280;10471;42.736;23.346;2022-09-27T07:52:42;94446.63;;;17.36;100.00
20624;BME280;10471;42.736;23.346;2022-09-27T07:55:09;94459.56;;;17.49;100.00
20624;BME280;10471;42.736;23.346;2022-09-27T07:57:36;94459.97;;;17.51;100.00
20624;BME280;10471;42.736;23.346;2022-09-27T08:00:07;94452.78;;;17.52;100.00
20624;BME280;10471;42.736;23.346;2022-09-27T08:02:34;94446.41;;;17.56;100.00
20624;BME280;10471;42.736;23.346;2022-09-27T08:04:59;94453.75;;;17.59;100.00
20624;BME280;10471;42.736;23.346;2022-09-27T08:07:26;94453.84;;;17.63;100.00
20624;BME280;10471;42.736;23.346;2022-09-27T08:09:51;94460.19;;;17.58;100.00
20624;BME280;10471;42.736;23.346;2022-09-27T08:12:17;94452.53;;;17.57;100.00
20624;BME280;10471;42.736;23.346;2022-09-27T08:14:46;94459.63;;;17.25;100.00
20624;BME280;10471;42.736;23.346;2022-09-27T08:17:11;94473.75;;;17.14;100.00
20624;BME280;10471;42.736;23.346;2022-09-27T08:19:37;94464.06;;;17.21;100.00
20624;BME280;10471;42.736;23.346;2022-09-27T08:22:03;94451.84;;;17.20;100.00
20624;BME280;10471;42.736;23.346;2022-09-27T08:24:29;94438.44;;;17.29;100.00
20624;BME280;10471;42.736;23.346;2022-09-27T08:26:54;94434.75;;;17.33;100.00
20624;BME280;10471;42.736;23.346;2022-09-27T08:29:20;94432.75;;;17.30;100.00
20624;BME280;10471;42.736;23.346;2022-09-27T08:31:45;94436.88;;;17.28;100.00
20624;BME280;10471;42.736;23.346;2022-09-27T08:34:10;94430.28;;;17.37;100.00
20624;BME280;10471;42.736;23.346;2022-09-27T08:36:36;94417.50;;;17.43;100.00
20624;BME280;10471;42.736;23.346;2022-09-27T08:39:02;94413.13;;;17.50;100.00
20624;BME280;10471;42.736;23.346;2022-09-27T08:41:43;94404.88;;;17.55;100.00
20624;BME280;10471;42.736;23.346;2022-09-27T08:47:10;94402.25;;;17.71;100.00
20624;BME280;10471;42.736;23.346;2022-09-27T08:49:50;94388.16;;;17.85;100.00
20624;BME280;10471;42.736;23.346;2022-09-27T08:52:46;94395.47;;;18.04;100.00
20624;BME280;10471;42.736;23.346;2022-09-27T08:55:34;94399.59;;;18.17;100.00
20624;BME280;10471;42.736;23.346;2022-09-27T08:58:08;94401.34;;;18.25;100.00
20624;BME280;10471;42.736;23.346;2022-09-27T09:00:36;94408.41;;;18.33;100.00
20624;BME280;10471;42.736;23.346;2022-09-27T09:03:01;94409.81;;;18.45;100.00
20624;BME280;10471;42.736;23.346;2022-09-27T09:05:28;94412.03;;;18.59;100.00
20624;BME280;10471;42.736;23.346;2022-09-27T09:08:25;94421.59;;;18.60;100.00
20624;BME280;10471;42.736;23.346;2022-09-27T09:11:20;94409.94;;;18.68;100.00
20624;BME280;10471;42.736;23.346;2022-09-27T09:14:21;94422.69;;;18.74;100.00
20624;BME280;10471;42.736;23.346;2022-09-27T09:26:06;94411.03;;;18.82;100.00
20624;BME280;10471;42.736;23.346;2022-09-27T09:36:50;94396.69;;;18.90;100.00
20624;BME280;10471;42.736;23.346;2022-09-27T09:39:27;94397.56;;;18.94;100.00
20624;BME280;10471;42.736;23.346;2022-09-27T09:42:11;94392.25;;;19.13;100.00
20624;BME280;10471;42.736;23.346;2022-09-27T09:44:47;94390.56;;;19.24;100.00
20624;BME280;10471;42.736;23.346;2022-09-27T09:47:37;94385.56;;;19.41;100.00
20624;BME280;10471;42.736;23.346;2022-09-27T09:50:25;94400.94;;;19.48;100.00
20624;BME280;10471;42.736;23.346;2022-09-27T09:53:19;94393.28;;;19.46;100.00
20624;BME280;10471;42.736;23.346;2022-09-27T09:55:58;94397.50;;;19.47;100.00
20624;BME280;10471;42.736;23.346;2022-09-27T09:58:39;94409.25;;;19.43;100.00
20624;BME280;10471;42.736;23.346;2022-09-27T10:03:44;94414.53;;;19.39;100.00
20624;BME280;10471;42.736;23.346;2022-09-27T10:06:10;94405.03;;;19.23;100.00
20624;BME280;10471;42.736;23.346;2022-09-27T10:08:38;94394.09;;;19.09;100.00
20624;BME280;10471;42.736;23.346;2022-09-27T10:11:03;94394.50;;;19.11;100.00
20624;BME280;10471;42.736;23.346;2022-09-27T10:13:31;94395.75;;;19.17;100.00
20624;BME280;10471;42.736;23.346;2022-09-27T10:16:11;94388.38;;;19.29;100.00
20624;BME280;10471;42.736;23.346;2022-09-27T10:18:39;94384.22;;;19.51;100.00
20624;BME280;10471;42.736;23.346;2022-09-27T10:21:29;94381.03;;;19.86;100.00
20624;BME280;10471;42.736;23.346;2022-09-27T10:26:30;94366.94;;;20.34;100.00
20624;BME280;10471;42.736;23.346;2022-09-27T10:28:56;94364.56;;;20.55;100.00
20624;BME280;10471;42.736;23.346;2022-09-27T10:31:21;94373.09;;;20.64;100.00
20624;BME280;10471;42.736;23.346;2022-09-27T10:33:56;94367.13;;;20.74;100.00
20624;BME280;10471;42.736;23.346;2022-09-27T10:36:28;94362.38;;;20.64;100.00
20624;BME280;10471;42.736;23.346;2022-09-27T10:38:57;94356.88;;;20.53;100.00
20624;BME280;10471;42.736;23.346;2022-09-27T10:43:48;94344.63;;;20.52;100.00
20624;BME280;10471;42.736;23.346;2022-09-27T10:46:26;94359.91;;;20.52;100.00
20624;BME280;10471;42.736;23.346;2022-09-27T10:51:50;94362.28;;;20.57;100.00
20624;BME280;10471;42.736;23.346;2022-09-27T10:54:25;94346.63;;;20.33;100.00
20624;BME280;10471;42.736;23.346;2022-09-27T10:56:58;94336.56;;;20.23;100.00
20624;BME280;10471;42.736;23.346;2022-09-27T10:59:25;94323.06;;;20.42;100.00
20624;BME280;10471;42.736;23.346;2022-09-27T11:01:52;94324.16;;;20.67;100.00
20624;BME280;10471;42.736;23.346;2022-09-27T11:04:30;94330.91;;;20.83;100.00
20624;BME280;10471;42.736;23.346;2022-09-27T11:07:10;94321.31;;;21.11;100.00
20624;BME280;10471;42.736;23.346;2022-09-27T11:12:15;94333.91;;;21.80;100.00
20624;BME280;10471;42.736;23.346;2022-09-27T11:14:53;94321.94;;;22.17;100.00
20624;BME280;10471;42.736;23.346;2022-09-27T11:17:31;94319.59;;;22.62;100.00
20624;BME280;10471;42.736;23.346;2022-09-27T11:20:11;94316.38;;;23.07;100.00
20624;BME280;10471;42.736;23.346;2022-09-27T11:23:04;94323.44;;;23.57;100.00
20624;BME280;10471;42.736;23.346;2022-09-27T11:31:42;94288.50;;;24.05;100.00
20624;BME280;10471;42.736;23.346;2022-09-27T12:09:39;94229.47;;;24.77;96.46
20624;BME280;10471;42.736;23.346;2022-09-27T12:12:17;94233.13;;;25.24;89.21
20624;BME280;10471;42.736;23.346;2022-09-27T12:14:59;94226.72;;;25.62;86.35
20624;BME280;10471;42.736;23.346;2022-09-27T12:17:29;94226.56;;;25.83;83.42
20624;BME280;10471;42.736;23.346;2022-09-27T12:19:57;94228.88;;;25.84;84.39
20624;BME280;10471;42.736;23.346;2022-09-27T12:22:29;94215.47;;;25.74;84.19
20624;BME280;10471;42.736;23.346;2022-09-27T12:24:58;94206.84;;;25.86;79.69
20624;BME280;10471;42.736;23.346;2022-09-27T12:27:35;94195.53;;;26.01;76.59
20624;BME280;10471;42.736;23.346;2022-09-27T12:30:03;94195.41;;;26.15;72.94
20624;BME280;10471;42.736;23.346;2022-09-27T12:35:28;94180.69;;;25.25;77.51
20624;BME280;10471;42.736;23.346;2022-09-27T12:38:00;94174.50;;;25.28;85.32
20624;BME280;10471;42.736;23.346;2022-09-27T12:40:33;94170.44;;;25.57;82.96
20624;BME280;10471;42.736;23.346;2022-09-27T12:43:08;94163.38;;;25.70;79.68
20624;BME280;10471;42.736;23.346;2022-09-27T12:48:53;94145.19;;;25.78;79.81
20624;BME280;10471;42.736;23.346;2022-09-27T12:51:21;94143.94;;;25.89;80.72
20624;BME280;10471;42.736;23.346;2022-09-27T12:56:46;94147.94;;;26.48;77.34
20624;BME280;10471;42.736;23.346;2022-09-27T13:12:55;94162.50;;;26.24;75.10
20624;BME280;10471;42.736;23.346;2022-09-27T13:15:25;94163.59;;;26.30;73.67
20624;BME280;10471;42.736;23.346;2022-09-27T13:17:54;94163.13;;;26.01;74.58
20624;BME280;10471;42.736;23.346;2022-09-27T13:22:53;94174.06;;;24.69;84.22
20624;BME280;10471;42.736;23.346;2022-09-27T13:30:54;94158.91;;;23.79;95.30
20624;BME280;10471;42.736;23.346;2022-09-27T13:39:02;94140.09;;;23.76;91.03
20624;BME280;10471;42.736;23.346;2022-09-27T13:46:59;94167.38;;;23.29;92.46
20624;BME280;10471;42.736;23.346;2022-09-27T13:49:26;94172.34;;;23.44;95.55
20624;BME280;10471;42.736;23.346;2022-09-27T13:52:01;94171.19;;;23.87;94.62
20624;BME280;10471;42.736;23.346;2022-09-27T13:54:39;94171.91;;;24.15;87.89
20624;BME280;10471;42.736;23.346;2022-09-27T14:00:43;94172.72;;;23.98;87.63
20624;BME280;10471;42.736;23.346;2022-09-27T14:05:45;94174.31;;;23.72;87.86
20624;BME280;10471;42.736;23.346;2022-09-27T14:10:49;94169.63;;;22.99;95.71
20624;BME280;10471;42.736;23.346;2022-09-27T14:13:18;94176.44;;;22.65;96.69
20624;BME280;10471;42.736;23.346;2022-09-27T14:15:45;94158.72;;;22.50;98.89
20624;BME280;10471;42.736;23.346;2022-09-27T14:18:11;94162.38;;;22.11;100.00
20624;BME280;10471;42.736;23.346;2022-09-27T14:20:44;94154.63;;;21.96;100.00
20624;BME280;10471;42.736;23.346;2022-09-27T14:23:22;94156.06;;;21.83;100.00
20624;BME280;10471;42.736;23.346;2022-09-27T14:25:50;94152.22;;;21.80;100.00
20624;BME280;10471;42.736;23.346;2022-09-27T14:28:20;94156.53;;;21.45;100.00
20624;BME280;10471;42.736;23.346;2022-09-27T14:30:46;94156.38;;;21.24;100.00
20624;BME280;10471;42.736;23.346;2022-09-27T14:33:27;94148.16;;;21.04;100.00
20624;BME280;10471;42.736;23.346;2022-09-27T14:35:53;94142.19;;;20.77;100.00
20624;BME280;10471;42.736;23.346;2022-09-27T14:38:37;94151.38;;;20.47;100.00
20624;BME280;10471;42.736;23.346;2022-09-27T14:41:05;94147.81;;;20.36;100.00
20624;BME280;10471;42.736;23.346;2022-09-27T14:43:36;94148.56;;;20.33;100.00
20624;BME280;10471;42.736;23.346;2022-09-27T14:46:06;94131.66;;;20.26;100.00
20624;BME280;10471;42.736;23.346;2022-09-27T14:48:34;94130.47;;;20.23;100.00
20624;BME280;10471;42.736;23.346;2022-09-27T14:51:03;94136.22;;;20.25;100.00
20624;BME280;10471;42.736;23.346;2022-09-27T14:53:52;94144.66;;;20.27;100.00
20624;BME280;10471;42.736;23.346;2022-09-27T14:56:48;94156.97;;;20.32;100.00
20624;BME280;10471;42.736;23.346;2022-09-27T14:59:22;94158.41;;;20.26;100.00
20624;BME280;10471;42.736;23.346;2022-09-27T15:01:52;94163.72;;;20.22;100.00
20624;BME280;10471;42.736;23.346;2022-09-27T15:04:19;94164.78;;;20.14;100.00
20624;BME280;10471;42.736;23.346;2022-09-27T15:06:46;94155.53;;;20.08;100.00
20624;BME280;10471;42.736;23.346;2022-09-27T15:09:14;94162.38;;;19.80;100.00
20624;BME280;10471;42.736;23.346;2022-09-27T15:11:41;94193.28;;;19.52;100.00
20624;BME280;10471;42.736;23.346;2022-09-27T15:14:16;94228.63;;;18.59;100.00
20624;BME280;10471;42.736;23.346;2022-09-27T15:16:45;94228.19;;;17.85;100.00
20624;BME280;10471;42.736;23.346;2022-09-27T15:19:24;94221.41;;;17.38;100.00
20624;BME280;10471;42.736;23.346;2022-09-27T15:21:51;94210.03;;;17.41;100.00
20624;BME280;10471;42.736;23.346;2022-09-27T15:24:42;94213.81;;;17.09;100.00
20624;BME280;10471;42.736;23.346;2022-09-27T15:27:17;94223.84;;;16.58;100.00
20624;BME280;10471;42.736;23.346;2022-09-27T15:29:55;94256.34;;;16.12;100.00
20624;BME280;10471;42.736;23.346;2022-09-27T15:32:24;94241.09;;;16.09;100.00
20624;BME280;10471;42.736;23.346;2022-09-27T15:34:50;94259.31;;;15.83;100.00
20624;BME280;10471;42.736;23.346;2022-09-27T15:37:26;94296.50;;;15.36;100.00
20624;BME280;10471;42.736;23.346;2022-09-27T15:39:52;94283.00;;;15.41;100.00
20624;BME280;10471;42.736;23.346;2022-09-27T15:42:17;94306.66;;;15.34;100.00